sensor_id;sensor_type;location;lat;lon;timestamp;pressure;altitude;pressure_sealevel;temperature;humidity
26657;BME280;14279;50.010;8.260;2023-04-06T00:01:00;100773.09;;;6.17;55.96
26657;BME280;14279;50.010;8.260;2023-04-06T00:03:26;100768.34;;;5.95;55.24
26657;BME280;14279;50.010;8.260;2023-04-06T00:05:51;100768.31;;;5.97;55.07
26657;BME280;14279;50.010;8.260;2023-04-06T00:08:17;100765.66;;;6.01;54.80
26657;BME280;14279;50.010;8.260;2023-04-06T00:10:42;100759.03;;;5.88;55.14
26657;BME280;14279;50.010;8.260;2023-04-06T00:13:07;100758.03;;;5.94;54.69
26657;BME280;14279;50.010;8.260;2023-04-06T00:15:33;100758.03;;;5.94;54.53
26657;BME280;14279;50.010;8.260;2023-04-06T00:17:58;100759.75;;;5.93;55.12
26657;BME280;14279;50.010;8.260;2023-04-06T00:20:23;100751.06;;;5.97;54.74
26657;BME280;14279;50.010;8.260;2023-04-06T00:22:49;100744.00;;;6.07;55.48
26657;BME280;14279;50.010;8.260;2023-04-06T00:25:15;100746.69;;;6.03;55.49
26657;BME280;14279;50.010;8.260;2023-04-06T00:27:40;100751.00;;;6.02;55.47
26657;BME280;14279;50.010;8.260;2023-04-06T00:30:07;100750.41;;;5.87;55.35
26657;BME280;14279;50.010;8.260;2023-04-06T00:32:34;100747.13;;;5.79;55.56
26657;BME280;14279;50.010;8.260;2023-04-06T00:34:59;100742.88;;;5.77;56.19
26657;BME280;14279;50.010;8.260;2023-04-06T00:37:25;100741.94;;;5.79;55.88
26657;BME280;14279;50.010;8.260;2023-04-06T00:39:50;100741.44;;;5.62;56.76
26657;BME280;14279;50.010;8.260;2023-04-06T00:42:17;100735.88;;;5.38;57.77
26657;BME280;14279;50.010;8.260;2023-04-06T00:44:43;100742.00;;;5.32;58.32
26657;BME280;14279;50.010;8.260;2023-04-06T00:47:09;100723.06;;;5.32;58.91
26657;BME280;14279;50.010;8.260;2023-04-06T00:49:34;100726.72;;;5.21;59.32
26657;BME280;14279;50.010;8.260;2023-04-06T00:52:00;100724.28;;;5.14;59.72
26657;BME280;14279;50.010;8.260;2023-04-06T00:54:26;100724.19;;;5.18;59.24
26657;BME280;14279;50.010;8.260;2023-04-06T00:56:52;100719.69;;;5.28;59.05
26657;BME280;14279;50.010;8.260;2023-04-06T00:59:17;100720.56;;;5.27;59.06
26657;BME280;14279;50.010;8.260;2023-04-06T01:01:42;100720.56;;;5.27;59.39
26657;BME280;14279;50.010;8.260;2023-04-06T01:04:08;100721.50;;;5.23;59.42
26657;BME280;14279;50.010;8.260;2023-04-06T01:06:33;100718.03;;;5.25;59.12
26657;BME280;14279;50.010;8.260;2023-04-06T01:08:59;100721.69;;;5.12;59.63
26657;BME280;14279;50.010;8.260;2023-04-06T01:11:24;100723.50;;;5.07;59.83
26657;BME280;14279;50.010;8.260;2023-04-06T01:13:50;100722.56;;;5.11;59.80
26657;BME280;14279;50.010;8.260;2023-04-06T01:16:15;100717.53;;;5.05;59.79
26657;BME280;14279;50.010;8.260;2023-04-06T01:18:40;100722.53;;;5.14;59.93
26657;BME280;14279;50.010;8.260;2023-04-06T01:21:07;100709.63;;;5.16;59.45
26657;BME280;14279;50.010;8.260;2023-04-06T01:23:34;100711.38;;;5.14;60.16
26657;BME280;14279;50.010;8.260;2023-04-06T01:25:59;100712.19;;;5.14;59.66
26657;BME280;14279;50.010;8.260;2023-04-06T01:28:24;100707.81;;;5.18;59.70
26657;BME280;14279;50.010;8.260;2023-04-06T01:30:50;100705.22;;;5.19;59.79
26657;BME280;14279;50.010;8.260;2023-04-06T01:33:15;100698.22;;;5.26;59.96
26657;BME280;14279;50.010;8.260;2023-04-06T01:35:41;100693.09;;;5.24;59.61
26657;BME280;14279;50.010;8.260;2023-04-06T01:38:06;100702.59;;;5.22;59.50
26657;BME280;14279;50.010;8.260;2023-04-06T01:40:31;100700.19;;;5.13;60.59
26657;BME280;14279;50.010;8.260;2023-04-06T01:42:57;100697.50;;;5.19;59.66
26657;BME280;14279;50.010;8.260;2023-04-06T01:45:22;100698.31;;;5.20;60.13
26657;BME280;14279;50.010;8.260;2023-04-06T01:47:47;100690.59;;;5.20;59.80
26657;BME280;14279;50.010;8.260;2023-04-06T01:50:12;100693.16;;;5.20;60.01
26657;BME280;14279;50.010;8.260;2023-04-06T01:52:38;100688.13;;;5.14;60.29
26657;BME280;14279;50.010;8.260;2023-04-06T01:55:03;100686.50;;;5.09;60.13
26657;BME280;14279;50.010;8.260;2023-04-06T01:57:28;100686.59;;;5.05;60.21
26657;BME280;14279;50.010;8.260;2023-04-06T01:59:54;100701.09;;;5.10;60.31
26657;BME280;14279;50.010;8.260;2023-04-06T02:02:19;100688.16;;;5.12;60.13
26657;BME280;14279;50.010;8.260;2023-04-06T02:04:44;100689.84;;;5.13;60.07
26657;BME280;14279;50.010;8.260;2023-04-06T02:07:09;100681.34;;;5.08;59.93
26657;BME280;14279;50.010;8.260;2023-04-06T02:09:35;100688.19;;;5.09;59.74
26657;BME280;14279;50.010;8.260;2023-04-06T02:12:00;100690.81;;;5.07;59.20
26657;BME280;14279;50.010;8.260;2023-04-06T02:14:26;100690.09;;;5.01;59.45
26657;BME280;14279;50.010;8.260;2023-04-06T02:16:51;100690.19;;;4.94;59.74
26657;BME280;14279;50.010;8.260;2023-04-06T02:19:16;100689.22;;;5.02;60.09
26657;BME280;14279;50.010;8.260;2023-04-06T02:21:42;100697.00;;;4.97;60.95
26657;BME280;14279;50.010;8.260;2023-04-06T02:24:07;100692.66;;;5.01;60.75
26657;BME280;14279;50.010;8.260;2023-04-06T02:26:33;100693.66;;;4.93;61.42
26657;BME280;14279;50.010;8.260;2023-04-06T02:28:58;100691.13;;;4.90;62.57
26657;BME280;14279;50.010;8.260;2023-04-06T02:31:29;100690.47;;;4.77;61.89
26657;BME280;14279;50.010;8.260;2023-04-06T02:33:55;100686.22;;;4.75;62.36
26657;BME280;14279;50.010;8.260;2023-04-06T02:36:20;100688.94;;;4.67;62.59
26657;BME280;14279;50.010;8.260;2023-04-06T02:38:45;100684.66;;;4.66;61.52
26657;BME280;14279;50.010;8.260;2023-04-06T02:41:10;100692.41;;;4.66;62.01
26657;BME280;14279;50.010;8.260;2023-04-06T02:43:36;100683.00;;;4.62;61.73
26657;BME280;14279;50.010;8.260;2023-04-06T02:46:01;100690.03;;;4.50;60.98
26657;BME280;14279;50.010;8.260;2023-04-06T02:48:26;100683.13;;;4.53;60.68
26657;BME280;14279;50.010;8.260;2023-04-06T02:50:51;100692.94;;;4.30;60.57
26657;BME280;14279;50.010;8.260;2023-04-06T02:53:16;100688.72;;;4.25;61.17
26657;BME280;14279;50.010;8.260;2023-04-06T02:55:42;100684.38;;;4.27;61.51
26657;BME280;14279;50.010;8.260;2023-04-06T02:58:07;100684.38;;;4.27;61.72
26657;BME280;14279;50.010;8.260;2023-04-06T03:00:32;100684.41;;;4.25;61.64
26657;BME280;14279;50.010;8.260;2023-04-06T03:02:57;100685.28;;;4.24;61.61
26657;BME280;14279;50.010;8.260;2023-04-06T03:05:23;100683.50;;;4.28;61.69
26657;BME280;14279;50.010;8.260;2023-04-06T03:07:48;100685.22;;;4.30;61.81
26657;BME280;14279;50.010;8.260;2023-04-06T03:10:13;100684.34;;;4.31;61.52
26657;BME280;14279;50.010;8.260;2023-04-06T03:12:38;100683.50;;;4.28;61.79
26657;BME280;14279;50.010;8.260;2023-04-06T03:15:04;100683.47;;;4.31;62.07
26657;BME280;14279;50.010;8.260;2023-04-06T03:17:30;100684.38;;;4.28;62.00
26657;BME280;14279;50.010;8.260;2023-04-06T03:19:55;100680.06;;;4.29;62.18
26657;BME280;14279;50.010;8.260;2023-04-06T03:22:20;100685.06;;;4.40;62.05
26657;BME280;14279;50.010;8.260;2023-04-06T03:24:46;100682.63;;;4.30;61.86
26657;BME280;14279;50.010;8.260;2023-04-06T03:27:11;100686.75;;;4.41;61.19
26657;BME280;14279;50.010;8.260;2023-04-06T03:29:36;100690.25;;;4.36;60.89
26657;BME280;14279;50.010;8.260;2023-04-06T03:32:02;100684.38;;;4.28;61.20
26657;BME280;14279;50.010;8.260;2023-04-06T03:34:27;100691.47;;;4.12;62.04
26657;BME280;14279;50.010;8.260;2023-04-06T03:36:52;100691.50;;;4.09;62.45
26657;BME280;14279;50.010;8.260;2023-04-06T03:39:18;100689.66;;;4.19;62.14
26657;BME280;14279;50.010;8.260;2023-04-06T03:41:43;100699.13;;;4.18;62.18
26657;BME280;14279;50.010;8.260;2023-04-06T03:44:09;100698.28;;;4.16;62.42
26657;BME280;14279;50.010;8.260;2023-04-06T03:46:35;100697.28;;;4.27;61.79
26657;BME280;14279;50.010;8.260;2023-04-06T03:49:00;100698.34;;;4.12;61.88
26657;BME280;14279;50.010;8.260;2023-04-06T03:51:25;100692.47;;;4.03;62.36
26657;BME280;14279;50.010;8.260;2023-04-06T03:53:51;100697.72;;;3.96;62.38
26657;BME280;14279;50.010;8.260;2023-04-06T03:56:16;100700.44;;;3.83;62.69
26657;BME280;14279;50.010;8.260;2023-04-06T03:58:41;100697.84;;;3.86;62.47
26657;BME280;14279;50.010;8.260;2023-04-06T04:01:06;100698.66;;;3.88;63.22
26657;BME280;14279;50.010;8.260;2023-04-06T04:03:32;100701.34;;;3.79;63.51
26657;BME280;14279;50.010;8.260;2023-04-06T04:05:57;100712.59;;;3.73;63.88
26657;BME280;14279;50.010;8.260;2023-04-06T04:08:23;100706.66;;;3.67;64.53
26657;BME280;14279;50.010;8.260;2023-04-06T04:10:49;100702.38;;;3.64;64.75
26657;BME280;14279;50.010;8.260;2023-04-06T04:13:14;100706.50;;;3.81;64.16
26657;BME280;14279;50.010;8.260;2023-04-06T04:15:39;100709.31;;;3.60;64.06
26657;BME280;14279;50.010;8.260;2023-04-06T04:18:05;100707.66;;;3.55;64.50
26657;BME280;14279;50.010;8.260;2023-04-06T04:20:30;100710.22;;;3.55;64.14
26657;BME280;14279;50.010;8.260;2023-04-06T04:22:55;100706.78;;;3.54;64.49
26657;BME280;14279;50.010;8.260;2023-04-06T04:25:20;100717.94;;;3.53;64.54
26657;BME280;14279;50.010;8.260;2023-04-06T04:27:46;100712.00;;;3.50;64.92
26657;BME280;14279;50.010;8.260;2023-04-06T04:30:11;100711.03;;;3.58;64.63
26657;BME280;14279;50.010;8.260;2023-04-06T04:32:36;100714.50;;;3.56;64.03
26657;BME280;14279;50.010;8.260;2023-04-06T04:35:02;100712.84;;;3.52;64.70
26657;BME280;14279;50.010;8.260;2023-04-06T04:37:27;100717.88;;;3.59;64.70
26657;BME280;14279;50.010;8.260;2023-04-06T04:39:52;100713.69;;;3.52;64.32
26657;BME280;14279;50.010;8.260;2023-04-06T04:42:17;100713.72;;;3.48;64.48
26657;BME280;14279;50.010;8.260;2023-04-06T04:44:43;100716.34;;;3.44;64.88
26657;BME280;14279;50.010;8.260;2023-04-06T04:47:08;100718.09;;;3.41;64.95
26657;BME280;14279;50.010;8.260;2023-04-06T04:49:33;100716.34;;;3.46;64.77
26657;BME280;14279;50.010;8.260;2023-04-06T04:51:58;100724.78;;;3.59;63.91
26657;BME280;14279;50.010;8.260;2023-04-06T04:54:24;100722.97;;;3.64;63.88
26657;BME280;14279;50.010;8.260;2023-04-06T04:56:49;100722.22;;;3.56;64.39
26657;BME280;14279;50.010;8.260;2023-04-06T04:59:20;100722.25;;;3.53;64.34
26657;BME280;14279;50.010;8.260;2023-04-06T05:01:45;100721.50;;;3.43;64.25
26657;BME280;14279;50.010;8.260;2023-04-06T05:04:11;100722.28;;;3.50;64.80
26657;BME280;14279;50.010;8.260;2023-04-06T05:06:36;100723.25;;;3.41;64.02
26657;BME280;14279;50.010;8.260;2023-04-06T05:09:01;100720.56;;;3.50;64.00
26657;BME280;14279;50.010;8.260;2023-04-06T05:11:26;100722.44;;;3.36;64.31
26657;BME280;14279;50.010;8.260;2023-04-06T05:13:53;100720.72;;;3.35;64.65
26657;BME280;14279;50.010;8.260;2023-04-06T05:16:18;100721.53;;;3.38;64.48
26657;BME280;14279;50.010;8.260;2023-04-06T05:18:43;100726.66;;;3.41;64.46
26657;BME280;14279;50.010;8.260;2023-04-06T05:21:10;100725.84;;;3.38;64.86
26657;BME280;14279;50.010;8.260;2023-04-06T05:23:36;100728.34;;;3.47;64.70
26657;BME280;14279;50.010;8.260;2023-04-06T05:26:01;100724.06;;;3.46;64.67
26657;BME280;14279;50.010;8.260;2023-04-06T05:28:26;100730.09;;;3.42;64.75
26657;BME280;14279;50.010;8.260;2023-04-06T05:30:52;100728.34;;;3.45;64.58
26657;BME280;14279;50.010;8.260;2023-04-06T05:33:18;100726.53;;;3.52;64.22
26657;BME280;14279;50.010;8.260;2023-04-06T05:35:43;100736.84;;;3.52;64.09
26657;BME280;14279;50.010;8.260;2023-04-06T05:38:08;100734.84;;;3.78;64.64
26657;BME280;14279;50.010;8.260;2023-04-06T05:40:36;100730.31;;;3.98;64.29
26657;BME280;14279;50.010;8.260;2023-04-06T05:43:02;100734.47;;;4.09;64.20
26657;BME280;14279;50.010;8.260;2023-04-06T05:45:28;100742.09;;;4.16;64.12
26657;BME280;14279;50.010;8.260;2023-04-06T05:47:53;100746.31;;;4.22;63.69
26657;BME280;14279;50.010;8.260;2023-04-06T05:50:18;100740.34;;;4.18;63.41
26657;BME280;14279;50.010;8.260;2023-04-06T05:52:44;100734.34;;;4.19;63.67
26657;BME280;14279;50.010;8.260;2023-04-06T05:55:11;100743.53;;;4.36;63.03
26657;BME280;14279;50.010;8.260;2023-04-06T05:57:36;100746.84;;;4.46;62.76
26657;BME280;14279;50.010;8.260;2023-04-06T06:00:02;100743.16;;;4.62;62.70
26657;BME280;14279;50.010;8.260;2023-04-06T06:02:30;100738.78;;;4.69;62.71
26657;BME280;14279;50.010;8.260;2023-04-06T06:04:55;100742.88;;;4.81;61.40
26657;BME280;14279;50.010;8.260;2023-04-06T06:07:21;100744.63;;;4.79;61.97
26657;BME280;14279;50.010;8.260;2023-04-06T06:09:46;100745.47;;;4.79;62.01
26657;BME280;14279;50.010;8.260;2023-04-06T06:12:11;100746.06;;;4.95;61.73
26657;BME280;14279;50.010;8.260;2023-04-06T06:14:36;100742.44;;;5.06;60.97
26657;BME280;14279;50.010;8.260;2023-04-06T06:17:02;100750.09;;;5.12;61.14
26657;BME280;14279;50.010;8.260;2023-04-06T06:19:57;100738.19;;;5.05;61.60
26657;BME280;14279;50.010;8.260;2023-04-06T06:29:09;100747.13;;;4.82;62.33
26657;BME280;14279;50.010;8.260;2023-04-06T06:31:50;100744.72;;;4.73;62.43
26657;BME280;14279;50.010;8.260;2023-04-06T06:34:19;100746.72;;;5.07;61.22
26657;BME280;14279;50.010;8.260;2023-04-06T06:36:44;100746.53;;;5.18;60.70
26657;BME280;14279;50.010;8.260;2023-04-06T06:39:10;100743.28;;;5.08;61.10
26657;BME280;14279;50.010;8.260;2023-04-06T06:41:35;100745.78;;;5.13;61.06
26657;BME280;14279;50.010;8.260;2023-04-06T06:44:00;100744.03;;;5.13;61.15
26657;BME280;14279;50.010;8.260;2023-04-06T06:46:26;100753.59;;;5.09;60.59
26657;BME280;14279;50.010;8.260;2023-04-06T06:48:51;100742.78;;;5.36;59.48
26657;BME280;14279;50.010;8.260;2023-04-06T06:51:16;100750.25;;;5.51;59.02
26657;BME280;14279;50.010;8.260;2023-04-06T06:53:41;100742.31;;;5.62;58.75
26657;BME280;14279;50.010;8.260;2023-04-06T06:56:07;100750.91;;;5.63;57.68
26657;BME280;14279;50.010;8.260;2023-04-06T06:58:32;100753.78;;;5.46;57.00
26657;BME280;14279;50.010;8.260;2023-04-06T07:00:58;100743.59;;;5.39;56.16
26657;BME280;14279;50.010;8.260;2023-04-06T07:03:24;100747.88;;;5.40;55.96
26657;BME280;14279;50.010;8.260;2023-04-06T07:05:49;100747.09;;;4.85;56.14
26657;BME280;14279;50.010;8.260;2023-04-06T07:08:19;100742.72;;;4.90;56.25
26657;BME280;14279;50.010;8.260;2023-04-06T07:10:44;100751.06;;;5.06;56.30
26657;BME280;14279;50.010;8.260;2023-04-06T07:13:09;100744.91;;;5.14;56.42
26657;BME280;14279;50.010;8.260;2023-04-06T07:15:35;100742.88;;;5.31;55.75
26657;BME280;14279;50.010;8.260;2023-04-06T07:18:00;100736.25;;;5.16;56.17
26657;BME280;14279;50.010;8.260;2023-04-06T07:20:25;100747.50;;;5.14;55.79
26657;BME280;14279;50.010;8.260;2023-04-06T07:22:53;100749.75;;;5.31;56.13
26657;BME280;14279;50.010;8.260;2023-04-06T07:25:18;100746.59;;;5.63;54.47
26657;BME280;14279;50.010;8.260;2023-04-06T07:27:43;100742.78;;;5.81;54.15
26657;BME280;14279;50.010;8.260;2023-04-06T07:30:09;100746.34;;;5.76;54.55
26657;BME280;14279;50.010;8.260;2023-04-06T07:32:35;100748.34;;;6.05;53.51
26657;BME280;14279;50.010;8.260;2023-04-06T07:35:00;100751.75;;;6.07;53.21
26657;BME280;14279;50.010;8.260;2023-04-06T07:37:26;100747.81;;;5.89;52.11
26657;BME280;14279;50.010;8.260;2023-04-06T07:39:51;100743.31;;;5.99;51.66
26657;BME280;14279;50.010;8.260;2023-04-06T07:42:16;100746.22;;;5.82;51.80
26657;BME280;14279;50.010;8.260;2023-04-06T07:44:42;100745.03;;;6.00;51.93
26657;BME280;14279;50.010;8.260;2023-04-06T07:47:07;100747.28;;;6.14;50.94
26657;BME280;14279;50.010;8.260;2023-04-06T07:49:32;100740.81;;;6.35;51.57
26657;BME280;14279;50.010;8.260;2023-04-06T07:51:58;100739.25;;;6.28;50.93
26657;BME280;14279;50.010;8.260;2023-04-06T07:54:23;100747.19;;;6.58;50.00
26657;BME280;14279;50.010;8.260;2023-04-06T07:56:48;100737.88;;;6.51;49.83
26657;BME280;14279;50.010;8.260;2023-04-06T07:59:13;100740.94;;;6.68;49.38
26657;BME280;14279;50.010;8.260;2023-04-06T08:01:39;100738.09;;;6.77;49.19
26657;BME280;14279;50.010;8.260;2023-04-06T08:04:04;100745.53;;;6.91;48.96
26657;BME280;14279;50.010;8.260;2023-04-06T08:06:30;100738.03;;;6.81;50.04
26657;BME280;14279;50.010;8.260;2023-04-06T08:08:55;100735.94;;;6.60;49.79
26657;BME280;14279;50.010;8.260;2023-04-06T08:11:20;100735.25;;;6.52;49.73
26657;BME280;14279;50.010;8.260;2023-04-06T08:13:46;100738.28;;;6.71;48.86
26657;BME280;14279;50.010;8.260;2023-04-06T08:16:11;100737.13;;;6.83;49.32
26657;BME280;14279;50.010;8.260;2023-04-06T08:18:37;100741.84;;;7.00;48.78
26657;BME280;14279;50.010;8.260;2023-04-06T08:21:02;100742.53;;;7.09;49.01
26657;BME280;14279;50.010;8.260;2023-04-06T08:23:27;100749.72;;;7.30;48.74
26657;BME280;14279;50.010;8.260;2023-04-06T08:25:59;100744.63;;;7.27;47.83
26657;BME280;14279;50.010;8.260;2023-04-06T08:28:27;100741.06;;;7.31;48.07
26657;BME280;14279;50.010;8.260;2023-04-06T08:30:53;100741.16;;;7.28;47.57
26657;BME280;14279;50.010;8.260;2023-04-06T08:33:18;100744.41;;;7.35;47.79
26657;BME280;14279;50.010;8.260;2023-04-06T08:35:44;100748.72;;;7.03;47.64
26657;BME280;14279;50.010;8.260;2023-04-06T08:38:09;100741.94;;;7.32;46.56
26657;BME280;14279;50.010;8.260;2023-04-06T08:40:38;100745.38;;;7.32;46.75
26657;BME280;14279;50.010;8.260;2023-04-06T08:43:06;100744.31;;;7.06;47.15
26657;BME280;14279;50.010;8.260;2023-04-06T08:45:34;100735.59;;;7.44;46.92
26657;BME280;14279;50.010;8.260;2023-04-06T08:48:00;100743.50;;;7.04;48.06
26657;BME280;14279;50.010;8.260;2023-04-06T08:50:28;100736.72;;;6.99;48.69
26657;BME280;14279;50.010;8.260;2023-04-06T08:52:55;100740.75;;;7.44;48.13
26657;BME280;14279;50.010;8.260;2023-04-06T08:55:20;100740.78;;;7.74;47.22
26657;BME280;14279;50.010;8.260;2023-04-06T08:57:47;100727.00;;;8.03;46.31
26657;BME280;14279;50.010;8.260;2023-04-06T09:00:13;100734.41;;;8.16;46.56
26657;BME280;14279;50.010;8.260;2023-04-06T09:02:41;100735.69;;;8.02;47.35
26657;BME280;14279;50.010;8.260;2023-04-06T09:05:08;100730.25;;;8.38;46.89
26657;BME280;14279;50.010;8.260;2023-04-06T09:07:35;100733.91;;;8.61;45.51
26657;BME280;14279;50.010;8.260;2023-04-06T09:10:00;100734.16;;;8.53;45.81
26657;BME280;14279;50.010;8.260;2023-04-06T09:12:27;100735.59;;;8.62;46.81
26657;BME280;14279;50.010;8.260;2023-04-06T09:14:54;100739.09;;;8.88;46.05
26657;BME280;14279;50.010;8.260;2023-04-06T09:17:27;100734.69;;;8.63;46.15
26657;BME280;14279;50.010;8.260;2023-04-06T09:19:52;100737.75;;;9.03;45.73
26657;BME280;14279;50.010;8.260;2023-04-06T09:22:18;100729.25;;;8.42;46.85
26657;BME280;14279;50.010;8.260;2023-04-06T09:24:47;100731.81;;;8.72;46.61
26657;BME280;14279;50.010;8.260;2023-04-06T09:27:13;100727.03;;;9.12;46.56
26657;BME280;14279;50.010;8.260;2023-04-06T09:29:40;100727.78;;;9.16;45.85
26657;BME280;14279;50.010;8.260;2023-04-06T09:32:07;100725.84;;;8.96;46.00
26657;BME280;14279;50.010;8.260;2023-04-06T09:34:33;100715.53;;;9.20;45.17
26657;BME280;14279;50.010;8.260;2023-04-06T09:36:59;100715.47;;;9.46;44.93
26657;BME280;14279;50.010;8.260;2023-04-06T09:39:24;100709.03;;;9.57;44.84
26657;BME280;14279;50.010;8.260;2023-04-06T09:41:51;100705.66;;;9.78;44.17
26657;BME280;14279;50.010;8.260;2023-04-06T09:44:17;100710.84;;;10.01;43.03
26657;BME280;14279;50.010;8.260;2023-04-06T09:46:43;100710.97;;;10.21;43.13
26657;BME280;14279;50.010;8.260;2023-04-06T09:49:11;100703.91;;;10.01;43.78
26657;BME280;14279;50.010;8.260;2023-04-06T09:51:38;100702.63;;;9.89;43.84
26657;BME280;14279;50.010;8.260;2023-04-06T09:54:04;100700.88;;;9.90;43.92
26657;BME280;14279;50.010;8.260;2023-04-06T09:56:37;100704.34;;;10.35;43.58
26657;BME280;14279;50.010;8.260;2023-04-06T09:59:09;100707.03;;;10.33;44.11
26657;BME280;14279;50.010;8.260;2023-04-06T10:01:38;100709.44;;;10.16;43.55
26657;BME280;14279;50.010;8.260;2023-04-06T10:04:25;100704.63;;;10.05;44.51
26657;BME280;14279;50.010;8.260;2023-04-06T10:06:52;100696.88;;;10.49;43.52
26657;BME280;14279;50.010;8.260;2023-04-06T10:09:18;100690.66;;;10.74;43.88
26657;BME280;14279;50.010;8.260;2023-04-06T10:11:45;100697.69;;;10.72;43.88
26657;BME280;14279;50.010;8.260;2023-04-06T10:14:13;100693.41;;;11.12;43.46
26657;BME280;14279;50.010;8.260;2023-04-06T10:16:38;100690.28;;;11.04;43.73
26657;BME280;14279;50.010;8.260;2023-04-06T10:19:13;100678.56;;;11.34;43.38
26657;BME280;14279;50.010;8.260;2023-04-06T10:21:43;100684.31;;;11.42;43.37
26657;BME280;14279;50.010;8.260;2023-04-06T10:24:11;100693.91;;;11.41;43.43
26657;BME280;14279;50.010;8.260;2023-04-06T10:26:37;100683.38;;;11.43;41.92
26657;BME280;14279;50.010;8.260;2023-04-06T10:29:03;100681.00;;;11.77;42.75
26657;BME280;14279;50.010;8.260;2023-04-06T10:31:29;100684.88;;;12.06;42.46
26657;BME280;14279;50.010;8.260;2023-04-06T10:36:25;100683.28;;;12.40;42.37
26657;BME280;14279;50.010;8.260;2023-04-06T10:38:57;100677.69;;;12.48;42.42
26657;BME280;14279;50.010;8.260;2023-04-06T10:41:22;100676.47;;;12.55;41.77
26657;BME280;14279;50.010;8.260;2023-04-06T10:43:55;100674.94;;;12.86;40.88
26657;BME280;14279;50.010;8.260;2023-04-06T10:46:25;100670.09;;;12.96;41.15
26657;BME280;14279;50.010;8.260;2023-04-06T10:48:51;100669.41;;;12.57;41.32
26657;BME280;14279;50.010;8.260;2023-04-06T10:51:17;100661.47;;;12.59;41.13
26657;BME280;14279;50.010;8.260;2023-04-06T10:53:44;100660.78;;;12.90;40.79
26657;BME280;14279;50.010;8.260;2023-04-06T10:56:14;100654.81;;;13.22;40.03
26657;BME280;14279;50.010;8.260;2023-04-06T10:58:51;100655.44;;;13.10;39.27
26657;BME280;14279;50.010;8.260;2023-04-06T11:01:19;100657.31;;;13.41;39.40
26657;BME280;14279;50.010;8.260;2023-04-06T11:03:45;100654.38;;;13.14;39.27
26657;BME280;14279;50.010;8.260;2023-04-06T11:06:17;100645.31;;;13.71;38.25
26657;BME280;14279;50.010;8.260;2023-04-06T11:08:42;100646.78;;;14.23;37.20
26657;BME280;14279;50.010;8.260;2023-04-06T11:11:10;100643.50;;;14.19;37.20
26657;BME280;14279;50.010;8.260;2023-04-06T11:13:56;100647.19;;;13.35;38.13
26657;BME280;14279;50.010;8.260;2023-04-06T11:18:58;100645.44;;;12.84;38.77
26657;BME280;14279;50.010;8.260;2023-04-06T11:21:43;100643.75;;;13.50;37.62
26657;BME280;14279;50.010;8.260;2023-04-06T11:26:42;100635.91;;;13.17;38.21
26657;BME280;14279;50.010;8.260;2023-04-06T11:29:09;100629.66;;;13.19;37.87
26657;BME280;14279;50.010;8.260;2023-04-06T11:31:43;100629.66;;;12.86;38.38
26657;BME280;14279;50.010;8.260;2023-04-06T11:34:16;100619.06;;;12.89;37.96
26657;BME280;14279;50.010;8.260;2023-04-06T11:36:44;100616.81;;;12.99;38.06
26657;BME280;14279;50.010;8.260;2023-04-06T11:39:10;100611.69;;;12.97;37.87
26657;BME280;14279;50.010;8.260;2023-04-06T11:41:35;100607.69;;;13.23;37.24
26657;BME280;14279;50.010;8.260;2023-04-06T11:44:02;100600.69;;;13.24;37.00
26657;BME280;14279;50.010;8.260;2023-04-06T11:46:30;100602.00;;;12.82;36.86
26657;BME280;14279;50.010;8.260;2023-04-06T11:49:00;100595.28;;;13.11;36.84
26657;BME280;14279;50.010;8.260;2023-04-06T11:51:25;100599.16;;;13.20;36.84
26657;BME280;14279;50.010;8.260;2023-04-06T11:53:52;100590.19;;;13.42;36.20
26657;BME280;14279;50.010;8.260;2023-04-06T11:56:29;100595.44;;;13.40;36.29
26657;BME280;14279;50.010;8.260;2023-04-06T11:58:57;100578.13;;;13.55;35.81
26657;BME280;14279;50.010;8.260;2023-04-06T12:01:24;100581.72;;;14.31;34.93
26657;BME280;14279;50.010;8.260;2023-04-06T12:03:50;100580.50;;;13.26;35.89
26657;BME280;14279;50.010;8.260;2023-04-06T12:06:16;100582.19;;;13.45;35.85
26657;BME280;14279;50.010;8.260;2023-04-06T12:08:42;100577.06;;;13.90;35.20
26657;BME280;14279;50.010;8.260;2023-04-06T12:11:07;100577.69;;;13.79;35.28
26657;BME280;14279;50.010;8.260;2023-04-06T12:13:32;100573.66;;;13.41;35.33
26657;BME280;14279;50.010;8.260;2023-04-06T12:15:58;100580.94;;;13.18;35.40
26657;BME280;14279;50.010;8.260;2023-04-06T12:18:23;100574.28;;;13.13;35.60
26657;BME280;14279;50.010;8.260;2023-04-06T12:20:48;100571.91;;;13.40;35.15
26657;BME280;14279;50.010;8.260;2023-04-06T12:23:13;100563.97;;;13.90;35.32
26657;BME280;14279;50.010;8.260;2023-04-06T12:25:40;100574.28;;;13.93;33.85
26657;BME280;14279;50.010;8.260;2023-04-06T12:28:06;100563.50;;;13.83;34.31
26657;BME280;14279;50.010;8.260;2023-04-06T12:30:31;100564.63;;;14.40;33.99
26657;BME280;14279;50.010;8.260;2023-04-06T12:32:57;100557.66;;;15.13;32.62
26657;BME280;14279;50.010;8.260;2023-04-06T12:35:22;100565.63;;;13.76;33.79
26657;BME280;14279;50.010;8.260;2023-04-06T12:37:47;100559.81;;;13.71;34.10
26657;BME280;14279;50.010;8.260;2023-04-06T12:40:13;100549.63;;;14.72;33.16
26657;BME280;14279;50.010;8.260;2023-04-06T12:42:39;100558.22;;;14.75;33.70
26657;BME280;14279;50.010;8.260;2023-04-06T12:45:10;100548.03;;;14.39;33.75
26657;BME280;14279;50.010;8.260;2023-04-06T12:47:35;100552.22;;;14.13;34.28
26657;BME280;14279;50.010;8.260;2023-04-06T12:50:04;100545.50;;;14.68;34.14
26657;BME280;14279;50.010;8.260;2023-04-06T12:52:30;100547.41;;;15.23;32.90
26657;BME280;14279;50.010;8.260;2023-04-06T12:54:57;100540.31;;;15.25;32.59
26657;BME280;14279;50.010;8.260;2023-04-06T12:57:24;100543.16;;;15.49;31.54
26657;BME280;14279;50.010;8.260;2023-04-06T12:59:50;100539.09;;;15.16;32.19
26657;BME280;14279;50.010;8.260;2023-04-06T13:02:16;100539.69;;;15.48;31.30
26657;BME280;14279;50.010;8.260;2023-04-06T13:04:42;100539.84;;;15.60;31.39
26657;BME280;14279;50.010;8.260;2023-04-06T13:07:07;100539.78;;;15.74;31.59